sensor_id;sensor_type;location;lat;lon;timestamp;temperature;humidity
63899;HTU21D;50070;-32.946;-60.652;2023-04-06T00:00:15;25.16;63.56
63899;HTU21D;50070;-32.946;-60.652;2023-04-06T00:02:42;25.36;62.74
63899;HTU21D;50070;-32.946;-60.652;2023-04-06T00:05:09;25.39;62.97
63899;HTU21D;50070;-32.946;-60.652;2023-04-06T00:07:36;25.36;63.02
63899;HTU21D;50070;-32.946;-60.652;2023-04-06T00:10:04;25.34;63.24
63899;HTU21D;50070;-32.946;-60.652;2023-04-06T00:12:31;25.01;64.66
63899;HTU21D;50070;-32.946;-60.652;2023-04-06T00:14:57;25.13;64.40
63899;HTU21D;50070;-32.946;-60.652;2023-04-06T00:17:24;25.14;64.34
63899;HTU21D;50070;-32.946;-60.652;2023-04-06T00:19:51;25.00;65.27
63899;HTU21D;50070;-32.946;-60.652;2023-04-06T00:22:18;25.05;65.04
63899;HTU21D;50070;-32.946;-60.652;2023-04-06T00:24:45;25.09;64.80
63899;HTU21D;50070;-32.946;-60.652;2023-04-06T00:27:11;25.24;64.24
63899;HTU21D;50070;-32.946;-60.652;2023-04-06T00:29:40;25.19;63.92
63899;HTU21D;50070;-32.946;-60.652;2023-04-06T00:32:07;25.06;64.50
63899;HTU21D;50070;-32.946;-60.652;2023-04-06T00:34:33;24.89;65.27
63899;HTU21D;50070;-32.946;-60.652;2023-04-06T00:37:00;24.72;65.88
63899;HTU21D;50070;-32.946;-60.652;2023-04-06T00:39:27;24.79;65.77
63899;HTU21D;50070;-32.946;-60.652;2023-04-06T00:41:54;25.00;65.02
63899;HTU21D;50070;-32.946;-60.652;2023-04-06T00:44:22;25.04;64.98
63899;HTU21D;50070;-32.946;-60.652;2023-04-06T00:46:49;25.00;65.53
63899;HTU21D;50070;-32.946;-60.652;2023-04-06T00:49:16;24.85;66.19
63899;HTU21D;50070;-32.946;-60.652;2023-04-06T00:51:43;24.92;65.86
63899;HTU21D;50070;-32.946;-60.652;2023-04-06T00:54:10;24.86;66.30
63899;HTU21D;50070;-32.946;-60.652;2023-04-06T00:56:36;24.85;66.42
63899;HTU21D;50070;-32.946;-60.652;2023-04-06T00:59:03;24.94;66.07
63899;HTU21D;50070;-32.946;-60.652;2023-04-06T01:01:30;24.97;66.05
63899;HTU21D;50070;-32.946;-60.652;2023-04-06T01:03:58;24.92;66.14
63899;HTU21D;50070;-32.946;-60.652;2023-04-06T01:06:25;24.74;67.08
63899;HTU21D;50070;-32.946;-60.652;2023-04-06T01:08:52;24.87;66.21
63899;HTU21D;50070;-32.946;-60.652;2023-04-06T01:11:19;24.83;66.37
63899;HTU21D;50070;-32.946;-60.652;2023-04-06T01:13:46;24.80;66.49
63899;HTU21D;50070;-32.946;-60.652;2023-04-06T01:16:13;24.76;66.65
63899;HTU21D;50070;-32.946;-60.652;2023-04-06T01:18:40;24.88;66.37
63899;HTU21D;50070;-32.946;-60.652;2023-04-06T01:21:09;24.75;66.61
63899;HTU21D;50070;-32.946;-60.652;2023-04-06T01:23:47;24.72;67.04
63899;HTU21D;50070;-32.946;-60.652;2023-04-06T01:26:14;24.54;67.67
63899;HTU21D;50070;-32.946;-60.652;2023-04-06T01:28:41;24.70;66.59
63899;HTU21D;50070;-32.946;-60.652;2023-04-06T01:31:09;24.70;66.67
63899;HTU21D;50070;-32.946;-60.652;2023-04-06T01:33:36;24.47;67.36
63899;HTU21D;50070;-32.946;-60.652;2023-04-06T01:36:04;24.42;67.64
63899;HTU21D;50070;-32.946;-60.652;2023-04-06T01:38:31;24.34;68.06
63899;HTU21D;50070;-32.946;-60.652;2023-04-06T01:40:57;24.44;67.78
63899;HTU21D;50070;-32.946;-60.652;2023-04-06T01:43:24;24.49;67.73
63899;HTU21D;50070;-32.946;-60.652;2023-04-06T01:45:51;24.45;66.88
63899;HTU21D;50070;-32.946;-60.652;2023-04-06T01:48:18;24.47;67.12
63899;HTU21D;50070;-32.946;-60.652;2023-04-06T01:50:45;24.20;68.27
63899;HTU21D;50070;-32.946;-60.652;2023-04-06T01:53:11;24.33;67.84
63899;HTU21D;50070;-32.946;-60.652;2023-04-06T01:55:38;24.42;67.39
63899;HTU21D;50070;-32.946;-60.652;2023-04-06T01:58:05;24.24;68.06
63899;HTU21D;50070;-32.946;-60.652;2023-04-06T02:00:31;24.35;67.62
63899;HTU21D;50070;-32.946;-60.652;2023-04-06T02:02:58;24.31;67.67
63899;HTU21D;50070;-32.946;-60.652;2023-04-06T02:05:26;24.12;68.31
63899;HTU21D;50070;-32.946;-60.652;2023-04-06T02:07:52;24.10;68.65
63899;HTU21D;50070;-32.946;-60.652;2023-04-06T02:10:19;24.02;68.70
63899;HTU21D;50070;-32.946;-60.652;2023-04-06T02:12:46;24.04;69.07
63899;HTU21D;50070;-32.946;-60.652;2023-04-06T02:15:12;23.96;69.49
63899;HTU21D;50070;-32.946;-60.652;2023-04-06T02:17:40;23.74;70.18
63899;HTU21D;50070;-32.946;-60.652;2023-04-06T02:20:07;23.54;71.05
63899;HTU21D;50070;-32.946;-60.652;2023-04-06T02:22:35;23.55;71.03
63899;HTU21D;50070;-32.946;-60.652;2023-04-06T02:25:02;23.60;71.22
63899;HTU21D;50070;-32.946;-60.652;2023-04-06T02:27:28;23.51;71.47
63899;HTU21D;50070;-32.946;-60.652;2023-04-06T02:29:55;23.46;71.67
63899;HTU21D;50070;-32.946;-60.652;2023-04-06T02:32:22;23.32;72.25
63899;HTU21D;50070;-32.946;-60.652;2023-04-06T02:34:49;23.41;72.03
63899;HTU21D;50070;-32.946;-60.652;2023-04-06T02:37:16;23.80;70.51
63899;HTU21D;50070;-32.946;-60.652;2023-04-06T02:39:43;23.67;71.09
63899;HTU21D;50070;-32.946;-60.652;2023-04-06T02:42:09;23.80;70.61
63899;HTU21D;50070;-32.946;-60.652;2023-04-06T02:44:38;23.83;70.45
63899;HTU21D;50070;-32.946;-60.652;2023-04-06T02:47:05;23.97;69.84
63899;HTU21D;50070;-32.946;-60.652;2023-04-06T02:49:32;23.81;70.21
63899;HTU21D;50070;-32.946;-60.652;2023-04-06T02:51:59;23.73;70.72
63899;HTU21D;50070;-32.946;-60.652;2023-04-06T02:54:26;23.91;69.92
63899;HTU21D;50070;-32.946;-60.652;2023-04-06T02:56:52;23.74;70.16
63899;HTU21D;50070;-32.946;-60.652;2023-04-06T02:59:19;23.71;70.61
63899;HTU21D;50070;-32.946;-60.652;2023-04-06T03:01:46;23.92;69.86
63899;HTU21D;50070;-32.946;-60.652;2023-04-06T03:04:13;23.92;69.76
63899;HTU21D;50070;-32.946;-60.652;2023-04-06T03:06:40;23.85;70.42
63899;HTU21D;50070;-32.946;-60.652;2023-04-06T03:09:07;23.98;69.73
63899;HTU21D;50070;-32.946;-60.652;2023-04-06T03:11:34;23.79;70.51
63899;HTU21D;50070;-32.946;-60.652;2023-04-06T03:14:00;23.79;70.60
63899;HTU21D;50070;-32.946;-60.652;2023-04-06T03:16:27;24.01;69.72
63899;HTU21D;50070;-32.946;-60.652;2023-04-06T03:18:54;23.69;71.02
63899;HTU21D;50070;-32.946;-60.652;2023-04-06T03:21:21;23.79;70.36
63899;HTU21D;50070;-32.946;-60.652;2023-04-06T03:23:48;23.88;69.90
63899;HTU21D;50070;-32.946;-60.652;2023-04-06T03:26:17;23.72;70.53
63899;HTU21D;50070;-32.946;-60.652;2023-04-06T03:28:44;23.64;70.70
63899;HTU21D;50070;-32.946;-60.652;2023-04-06T03:31:11;23.38;71.56
63899;HTU21D;50070;-32.946;-60.652;2023-04-06T03:33:38;23.59;70.79
63899;HTU21D;50070;-32.946;-60.652;2023-04-06T03:36:05;23.41;71.43
63899;HTU21D;50070;-32.946;-60.652;2023-04-06T03:38:32;23.54;71.09
63899;HTU21D;50070;-32.946;-60.652;2023-04-06T03:40:59;23.69;70.19
63899;HTU21D;50070;-32.946;-60.652;2023-04-06T03:43:26;23.47;71.11
63899;HTU21D;50070;-32.946;-60.652;2023-04-06T03:45:52;23.64;70.53
63899;HTU21D;50070;-32.946;-60.652;2023-04-06T03:48:19;23.54;70.60
63899;HTU21D;50070;-32.946;-60.652;2023-04-06T03:50:46;23.54;70.38
63899;HTU21D;50070;-32.946;-60.652;2023-04-06T03:53:13;23.76;69.60
63899;HTU21D;50070;-32.946;-60.652;2023-04-06T03:55:39;23.61;70.36
63899;HTU21D;50070;-32.946;-60.652;2023-04-06T03:58:06;23.70;69.97
63899;HTU21D;50070;-32.946;-60.652;2023-04-06T04:00:33;23.66;70.07
63899;HTU21D;50070;-32.946;-60.652;2023-04-06T04:03:00;23.61;70.26
63899;HTU21D;50070;-32.946;-60.652;2023-04-06T04:05:28;23.61;70.47
63899;HTU21D;50070;-32.946;-60.652;2023-04-06T04:07:55;23.57;70.85
63899;HTU21D;50070;-32.946;-60.652;2023-04-06T04:10:22;23.68;70.23
63899;HTU21D;50070;-32.946;-60.652;2023-04-06T04:12:48;23.75;70.33
63899;HTU21D;50070;-32.946;-60.652;2023-04-06T04:15:15;23.80;70.00
63899;HTU21D;50070;-32.946;-60.652;2023-04-06T04:17:42;23.80;70.16
63899;HTU21D;50070;-32.946;-60.652;2023-04-06T04:20:13;23.83;69.94
63899;HTU21D;50070;-32.946;-60.652;2023-04-06T04:22:40;23.88;69.84
63899;HTU21D;50070;-32.946;-60.652;2023-04-06T04:25:08;23.89;69.81
63899;HTU21D;50070;-32.946;-60.652;2023-04-06T04:27:34;23.81;70.13
63899;HTU21D;50070;-32.946;-60.652;2023-04-06T04:30:01;23.91;69.49
63899;HTU21D;50070;-32.946;-60.652;2023-04-06T04:32:28;23.82;69.98
63899;HTU21D;50070;-32.946;-60.652;2023-04-06T04:34:54;23.82;70.00
63899;HTU21D;50070;-32.946;-60.652;2023-04-06T04:37:21;23.76;70.07
63899;HTU21D;50070;-32.946;-60.652;2023-04-06T04:39:48;23.69;70.52
63899;HTU21D;50070;-32.946;-60.652;2023-04-06T04:42:15;23.62;70.69
63899;HTU21D;50070;-32.946;-60.652;2023-04-06T04:44:41;23.62;70.62
63899;HTU21D;50070;-32.946;-60.652;2023-04-06T04:47:08;23.56;70.68
63899;HTU21D;50070;-32.946;-60.652;2023-04-06T04:49:35;23.55;70.83
63899;HTU21D;50070;-32.946;-60.652;2023-04-06T04:52:02;23.73;70.07
63899;HTU21D;50070;-32.946;-60.652;2023-04-06T04:54:29;23.60;70.68
63899;HTU21D;50070;-32.946;-60.652;2023-04-06T04:56:55;23.52;71.19
63899;HTU21D;50070;-32.946;-60.652;2023-04-06T04:59:22;23.68;70.41
63899;HTU21D;50070;-32.946;-60.652;2023-04-06T05:01:49;23.59;70.84
63899;HTU21D;50070;-32.946;-60.652;2023-04-06T05:04:16;23.60;70.82
63899;HTU21D;50070;-32.946;-60.652;2023-04-06T05:06:42;23.50;71.45
63899;HTU21D;50070;-32.946;-60.652;2023-04-06T05:09:09;23.46;71.35
63899;HTU21D;50070;-32.946;-60.652;2023-04-06T05:11:36;23.24;72.51
63899;HTU21D;50070;-32.946;-60.652;2023-04-06T05:14:03;23.15;72.85
63899;HTU21D;50070;-32.946;-60.652;2023-04-06T05:16:30;23.00;73.22
63899;HTU21D;50070;-32.946;-60.652;2023-04-06T05:18:57;23.03;72.98
63899;HTU21D;50070;-32.946;-60.652;2023-04-06T05:21:24;23.17;71.97
63899;HTU21D;50070;-32.946;-60.652;2023-04-06T05:23:52;23.17;71.79
63899;HTU21D;50070;-32.946;-60.652;2023-04-06T05:26:20;23.17;71.20
63899;HTU21D;50070;-32.946;-60.652;2023-04-06T05:28:48;23.14;71.12
63899;HTU21D;50070;-32.946;-60.652;2023-04-06T05:31:15;23.10;71.15
63899;HTU21D;50070;-32.946;-60.652;2023-04-06T05:33:42;23.22;70.24
63899;HTU21D;50070;-32.946;-60.652;2023-04-06T05:36:09;23.02;71.02
63899;HTU21D;50070;-32.946;-60.652;2023-04-06T05:38:35;23.07;70.97
63899;HTU21D;50070;-32.946;-60.652;2023-04-06T05:41:02;22.95;71.19
63899;HTU21D;50070;-32.946;-60.652;2023-04-06T05:43:29;22.82;71.58
63899;HTU21D;50070;-32.946;-60.652;2023-04-06T05:45:56;22.70;71.79
63899;HTU21D;50070;-32.946;-60.652;2023-04-06T05:48:23;22.66;71.93
63899;HTU21D;50070;-32.946;-60.652;2023-04-06T05:50:50;22.79;70.92
63899;HTU21D;50070;-32.946;-60.652;2023-04-06T05:53:17;22.65;71.70
63899;HTU21D;50070;-32.946;-60.652;2023-04-06T05:55:43;22.42;72.06
63899;HTU21D;50070;-32.946;-60.652;2023-04-06T05:58:11;22.19;72.95
63899;HTU21D;50070;-32.946;-60.652;2023-04-06T06:00:38;22.34;72.20
63899;HTU21D;50070;-32.946;-60.652;2023-04-06T06:03:05;22.16;72.83
63899;HTU21D;50070;-32.946;-60.652;2023-04-06T06:05:32;22.26;72.16
63899;HTU21D;50070;-32.946;-60.652;2023-04-06T06:07:59;22.48;71.22
63899;HTU21D;50070;-32.946;-60.652;2023-04-06T06:10:28;22.39;70.76
63899;HTU21D;50070;-32.946;-60.652;2023-04-06T06:12:55;22.43;70.31
63899;HTU21D;50070;-32.946;-60.652;2023-04-06T06:15:22;22.52;69.71
63899;HTU21D;50070;-32.946;-60.652;2023-04-06T06:17:48;22.47;69.75
63899;HTU21D;50070;-32.946;-60.652;2023-04-06T06:20:15;22.68;68.89
63899;HTU21D;50070;-32.946;-60.652;2023-04-06T06:22:42;22.63;68.84
63899;HTU21D;50070;-32.946;-60.652;2023-04-06T06:25:09;22.76;68.58
63899;HTU21D;50070;-32.946;-60.652;2023-04-06T06:27:36;22.63;68.88
63899;HTU21D;50070;-32.946;-60.652;2023-04-06T06:30:03;22.68;68.69
63899;HTU21D;50070;-32.946;-60.652;2023-04-06T06:32:32;22.62;68.70
63899;HTU21D;50070;-32.946;-60.652;2023-04-06T06:34:59;22.69;68.42
63899;HTU21D;50070;-32.946;-60.652;2023-04-06T06:37:25;22.58;69.07
63899;HTU21D;50070;-32.946;-60.652;2023-04-06T06:39:52;22.57;68.81
63899;HTU21D;50070;-32.946;-60.652;2023-04-06T06:42:19;22.70;68.48
63899;HTU21D;50070;-32.946;-60.652;2023-04-06T06:44:46;22.43;69.29
63899;HTU21D;50070;-32.946;-60.652;2023-04-06T06:47:13;22.46;69.62
63899;HTU21D;50070;-32.946;-60.652;2023-04-06T06:49:39;22.38;70.12
63899;HTU21D;50070;-32.946;-60.652;2023-04-06T06:52:06;22.52;69.04
63899;HTU21D;50070;-32.946;-60.652;2023-04-06T06:54:33;22.36;69.96
63899;HTU21D;50070;-32.946;-60.652;2023-04-06T06:57:00;22.27;70.19
63899;HTU21D;50070;-32.946;-60.652;2023-04-06T06:59:27;22.46;69.69
63899;HTU21D;50070;-32.946;-60.652;2023-04-06T07:01:54;22.41;69.64
63899;HTU21D;50070;-32.946;-60.652;2023-04-06T07:04:21;22.18;70.94
63899;HTU21D;50070;-32.946;-60.652;2023-04-06T07:06:48;22.09;71.32
63899;HTU21D;50070;-32.946;-60.652;2023-04-06T07:09:14;22.17;71.19
63899;HTU21D;50070;-32.946;-60.652;2023-04-06T07:11:41;22.12;71.18
63899;HTU21D;50070;-32.946;-60.652;2023-04-06T07:14:08;22.24;70.65
63899;HTU21D;50070;-32.946;-60.652;2023-04-06T07:16:35;22.36;70.26
63899;HTU21D;50070;-32.946;-60.652;2023-04-06T07:19:01;22.20;71.11
63899;HTU21D;50070;-32.946;-60.652;2023-04-06T07:21:28;22.29;70.83
63899;HTU21D;50070;-32.946;-60.652;2023-04-06T07:23:55;22.22;71.07
63899;HTU21D;50070;-32.946;-60.652;2023-04-06T07:26:22;22.26;70.61
63899;HTU21D;50070;-32.946;-60.652;2023-04-06T07:28:48;22.33;70.71
63899;HTU21D;50070;-32.946;-60.652;2023-04-06T07:31:15;21.88;72.52
63899;HTU21D;50070;-32.946;-60.652;2023-04-06T07:33:42;21.72;73.22
63899;HTU21D;50070;-32.946;-60.652;2023-04-06T07:36:08;21.54;74.09
63899;HTU21D;50070;-32.946;-60.652;2023-04-06T07:38:35;21.55;74.29
63899;HTU21D;50070;-32.946;-60.652;2023-04-06T07:41:02;21.60;74.08
63899;HTU21D;50070;-32.946;-60.652;2023-04-06T07:43:30;21.68;73.68
63899;HTU21D;50070;-32.946;-60.652;2023-04-06T07:45:57;21.84;73.04
63899;HTU21D;50070;-32.946;-60.652;2023-04-06T07:48:25;21.67;73.37
63899;HTU21D;50070;-32.946;-60.652;2023-04-06T07:50:59;21.70;72.90
63899;HTU21D;50070;-32.946;-60.652;2023-04-06T07:53:26;21.54;73.58
63899;HTU21D;50070;-32.946;-60.652;2023-04-06T07:55:53;21.44;73.99
63899;HTU21D;50070;-32.946;-60.652;2023-04-06T07:58:21;21.57;73.52
63899;HTU21D;50070;-32.946;-60.652;2023-04-06T08:00:48;21.50;73.71
63899;HTU21D;50070;-32.946;-60.652;2023-04-06T08:03:15;21.44;74.22
63899;HTU21D;50070;-32.946;-60.652;2023-04-06T08:05:42;21.51;73.64
63899;HTU21D;50070;-32.946;-60.652;2023-04-06T08:08:09;21.73;73.03
63899;HTU21D;50070;-32.946;-60.652;2023-04-06T08:10:36;21.70;72.81
63899;HTU21D;50070;-32.946;-60.652;2023-04-06T08:13:03;21.59;73.00
63899;HTU21D;50070;-32.946;-60.652;2023-04-06T08:15:29;21.35;74.18
63899;HTU21D;50070;-32.946;-60.652;2023-04-06T08:17:56;21.60;73.48
63899;HTU21D;50070;-32.946;-60.652;2023-04-06T08:20:23;21.75;72.65
63899;HTU21D;50070;-32.946;-60.652;2023-04-06T08:22:50;21.91;72.03
63899;HTU21D;50070;-32.946;-60.652;2023-04-06T08:25:17;22.01;71.53
63899;HTU21D;50070;-32.946;-60.652;2023-04-06T08:27:44;21.66;72.92
63899;HTU21D;50070;-32.946;-60.652;2023-04-06T08:30:11;21.64;73.09
63899;HTU21D;50070;-32.946;-60.652;2023-04-06T08:32:38;21.74;72.91
63899;HTU21D;50070;-32.946;-60.652;2023-04-06T08:35:05;21.54;73.59
63899;HTU21D;50070;-32.946;-60.652;2023-04-06T08:37:31;21.53;73.75
63899;HTU21D;50070;-32.946;-60.652;2023-04-06T08:39:58;21.49;73.92
63899;HTU21D;50070;-32.946;-60.652;2023-04-06T08:42:26;21.54;73.92
63899;HTU21D;50070;-32.946;-60.652;2023-04-06T08:44:55;21.77;72.91
63899;HTU21D;50070;-32.946;-60.652;2023-04-06T08:47:22;21.82;72.73
63899;HTU21D;50070;-32.946;-60.652;2023-04-06T08:49:49;21.80;72.83
63899;HTU21D;50070;-32.946;-60.652;2023-04-06T08:52:18;21.74;73.11
63899;HTU21D;50070;-32.946;-60.652;2023-04-06T08:54:45;21.72;73.29
63899;HTU21D;50070;-32.946;-60.652;2023-04-06T08:57:12;21.92;72.60
63899;HTU21D;50070;-32.946;-60.652;2023-04-06T08:59:40;21.97;72.36
63899;HTU21D;50070;-32.946;-60.652;2023-04-06T09:02:09;21.96;72.30
63899;HTU21D;50070;-32.946;-60.652;2023-04-06T09:04:40;22.02;72.10
63899;HTU21D;50070;-32.946;-60.652;2023-04-06T09:07:07;22.05;71.96
63899;HTU21D;50070;-32.946;-60.652;2023-04-06T09:09:34;22.05;72.15
63899;HTU21D;50070;-32.946;-60.652;2023-04-06T09:12:01;22.09;71.89
63899;HTU21D;50070;-32.946;-60.652;2023-04-06T09:14:35;21.87;72.60
63899;HTU21D;50070;-32.946;-60.652;2023-04-06T09:17:03;21.88;73.06
63899;HTU21D;50070;-32.946;-60.652;2023-04-06T09:19:30;21.78;73.66
63899;HTU21D;50070;-32.946;-60.652;2023-04-06T09:22:05;21.62;74.28
63899;HTU21D;50070;-32.946;-60.652;2023-04-06T09:24:43;21.76;73.63
63899;HTU21D;50070;-32.946;-60.652;2023-04-06T09:27:10;21.65;74.15
63899;HTU21D;50070;-32.946;-60.652;2023-04-06T09:29:37;21.65;73.91
63899;HTU21D;50070;-32.946;-60.652;2023-04-06T09:32:08;21.69;74.07
63899;HTU21D;50070;-32.946;-60.652;2023-04-06T09:34:40;21.51;75.11
63899;HTU21D;50070;-32.946;-60.652;2023-04-06T09:37:17;21.49;75.08
63899;HTU21D;50070;-32.946;-60.652;2023-04-06T09:39:45;21.59;74.53
63899;HTU21D;50070;-32.946;-60.652;2023-04-06T09:42:27;21.63;74.49
63899;HTU21D;50070;-32.946;-60.652;2023-04-06T09:44:54;21.58;74.53
63899;HTU21D;50070;-32.946;-60.652;2023-04-06T09:47:22;21.83;73.66
63899;HTU21D;50070;-32.946;-60.652;2023-04-06T09:49:56;21.84;73.54
63899;HTU21D;50070;-32.946;-60.652;2023-04-06T09:52:37;21.74;73.57
63899;HTU21D;50070;-32.946;-60.652;2023-04-06T09:55:06;21.74;73.54
63899;HTU21D;50070;-32.946;-60.652;2023-04-06T09:57:38;21.87;73.04
63899;HTU21D;50070;-32.946;-60.652;2023-04-06T10:00:08;21.76;73.60
63899;HTU21D;50070;-32.946;-60.652;2023-04-06T10:03:02;21.90;73.05
63899;HTU21D;50070;-32.946;-60.652;2023-04-06T10:08:11;21.80;73.68
63899;HTU21D;50070;-32.946;-60.652;2023-04-06T10:10:39;21.62;74.70
63899;HTU21D;50070;-32.946;-60.652;2023-04-06T10:13:06;21.58;74.96
63899;HTU21D;50070;-32.946;-60.652;2023-04-06T10:15:33;21.69;74.44
63899;HTU21D;50070;-32.946;-60.652;2023-04-06T10:18:01;21.81;73.95
63899;HTU21D;50070;-32.946;-60.652;2023-04-06T10:23:25;21.48;75.75
63899;HTU21D;50070;-32.946;-60.652;2023-04-06T10:25:54;21.53;75.22
63899;HTU21D;50070;-32.946;-60.652;2023-04-06T10:28:22;21.55;75.44
63899;HTU21D;50070;-32.946;-60.652;2023-04-06T10:30:59;21.55;75.47
63899;HTU21D;50070;-32.946;-60.652;2023-04-06T10:33:26;21.52;75.85
63899;HTU21D;50070;-32.946;-60.652;2023-04-06T10:35:53;21.53;75.70
63899;HTU21D;50070;-32.946;-60.652;2023-04-06T10:38:37;21.73;74.89
63899;HTU21D;50070;-32.946;-60.652;2023-04-06T10:41:05;21.58;75.81
63899;HTU21D;50070;-32.946;-60.652;2023-04-06T10:43:40;21.65;75.63
63899;HTU21D;50070;-32.946;-60.652;2023-04-06T10:46:08;21.65;75.59
63899;HTU21D;50070;-32.946;-60.652;2023-04-06T10:48:43;21.63;75.72
63899;HTU21D;50070;-32.946;-60.652;2023-04-06T10:51:14;21.61;76.23
63899;HTU21D;50070;-32.946;-60.652;2023-04-06T10:53:45;21.74;75.89
63899;HTU21D;50070;-32.946;-60.652;2023-04-06T10:56:18;21.64;76.37
63899;HTU21D;50070;-32.946;-60.652;2023-04-06T10:58:53;21.64;76.33
63899;HTU21D;50070;-32.946;-60.652;2023-04-06T11:01:23;21.65;75.89
63899;HTU21D;50070;-32.946;-60.652;2023-04-06T11:03:55;21.70;75.98
63899;HTU21D;50070;-32.946;-60.652;2023-04-06T11:06:26;21.69;75.72
63899;HTU21D;50070;-32.946;-60.652;2023-04-06T11:08:54;21.58;76.39
63899;HTU21D;50070;-32.946;-60.652;2023-04-06T11:11:22;21.62;75.90
63899;HTU21D;50070;-32.946;-60.652;2023-04-06T11:13:59;21.65;75.39
63899;HTU21D;50070;-32.946;-60.652;2023-04-06T11:16:29;21.36;76.80
63899;HTU21D;50070;-32.946;-60.652;2023-04-06T11:18:58;21.38;76.73
63899;HTU21D;50070;-32.946;-60.652;2023-04-06T11:21:42;21.50;76.24
63899;HTU21D;50070;-32.946;-60.652;2023-04-06T11:24:17;21.59;76.11
63899;HTU21D;50070;-32.946;-60.652;2023-04-06T11:26:55;21.44;76.77
63899;HTU21D;50070;-32.946;-60.652;2023-04-06T11:29:23;21.46;76.82
63899;HTU21D;50070;-32.946;-60.652;2023-04-06T11:31:52;21.32;77.47
63899;HTU21D;50070;-32.946;-60.652;2023-04-06T11:34:23;21.55;76.50
63899;HTU21D;50070;-32.946;-60.652;2023-04-06T11:37:01;21.58;76.27
63899;HTU21D;50070;-32.946;-60.652;2023-04-06T11:39:36;21.58;76.07
63899;HTU21D;50070;-32.946;-60.652;2023-04-06T11:42:04;21.69;75.82
63899;HTU21D;50070;-32.946;-60.652;2023-04-06T11:44:36;21.49;76.63
63899;HTU21D;50070;-32.946;-60.652;2023-04-06T11:47:06;21.67;76.02
63899;HTU21D;50070;-32.946;-60.652;2023-04-06T11:49:36;21.79;75.42
63899;HTU21D;50070;-32.946;-60.652;2023-04-06T11:52:13;21.43;76.95
63899;HTU21D;50070;-32.946;-60.652;2023-04-06T11:54:40;21.50;76.60
63899;HTU21D;50070;-32.946;-60.652;2023-04-06T11:57:08;21.67;76.12
63899;HTU21D;50070;-32.946;-60.652;2023-04-06T11:59:35;21.52;76.51
63899;HTU21D;50070;-32.946;-60.652;2023-04-06T12:02:02;21.65;76.17
63899;HTU21D;50070;-32.946;-60.652;2023-04-06T12:04:30;21.78;75.57
63899;HTU21D;50070;-32.946;-60.652;2023-04-06T12:06:57;21.53;76.61
63899;HTU21D;50070;-32.946;-60.652;2023-04-06T12:09:24;21.53;76.61
63899;HTU21D;50070;-32.946;-60.652;2023-04-06T12:11:51;21.84;75.41
63899;HTU21D;50070;-32.946;-60.652;2023-04-06T12:14:18;21.89;75.31
63899;HTU21D;50070;-32.946;-60.652;2023-04-06T12:16:44;22.05;74.37
63899;HTU21D;50070;-32.946;-60.652;2023-04-06T12:19:12;22.09;74.27
63899;HTU21D;50070;-32.946;-60.652;2023-04-06T12:21:39;22.11;74.05
63899;HTU21D;50070;-32.946;-60.652;2023-04-06T12:24:06;22.19;74.02
63899;HTU21D;50070;-32.946;-60.652;2023-04-06T12:26:34;22.25;73.50
63899;HTU21D;50070;-32.946;-60.652;2023-04-06T12:29:03;22.23;73.78
63899;HTU21D;50070;-32.946;-60.652;2023-04-06T12:31:34;21.90;75.24
63899;HTU21D;50070;-32.946;-60.652;2023-04-06T12:34:02;22.17;74.46
63899;HTU21D;50070;-32.946;-60.652;2023-04-06T12:36:30;22.33;73.48
63899;HTU21D;50070;-32.946;-60.652;2023-04-06T12:38:57;22.44;73.13
63899;HTU21D;50070;-32.946;-60.652;2023-04-06T12:41:24;22.61;72.66
63899;HTU21D;50070;-32.946;-60.652;2023-04-06T12:43:51;22.83;71.56
63899;HTU21D;50070;-32.946;-60.652;2023-04-06T12:46:17;22.56;73.06
63899;HTU21D;50070;-32.946;-60.652;2023-04-06T12:48:44;22.63;72.87
63899;HTU21D;50070;-32.946;-60.652;2023-04-06T12:51:11;22.60;72.87
63899;HTU21D;50070;-32.946;-60.652;2023-04-06T12:53:37;22.60;72.96
63899;HTU21D;50070;-32.946;-60.652;2023-04-06T12:56:12;22.23;74.18
63899;HTU21D;50070;-32.946;-60.652;2023-04-06T12:58:40;22.20;74.67
63899;HTU21D;50070;-32.946;-60.652;2023-04-06T13:01:09;22.26;73.97
63899;HTU21D;50070;-32.946;-60.652;2023-04-06T13:03:39;22.08;74.99
63899;HTU21D;50070;-32.946;-60.652;2023-04-06T13:06:06;22.25;74.55
63899;HTU21D;50070;-32.946;-60.652;2023-04-06T13:08:34;22.21;74.54
63899;HTU21D;50070;-32.946;-60.652;2023-04-06T13:11:03;22.19;74.64
63899;HTU21D;50070;-32.946;-60.652;2023-04-06T13:13:31;22.18;74.67
63899;HTU21D;50070;-32.946;-60.652;2023-04-06T13:16:03;22.33;73.41
63899;HTU21D;50070;-32.946;-60.652;2023-04-06T13:18:31;22.13;74.18
63899;HTU21D;50070;-32.946;-60.652;2023-04-06T13:20:58;22.22;74.12
63899;HTU21D;50070;-32.946;-60.652;2023-04-06T13:23:28;22.26;73.90
63899;HTU21D;50070;-32.946;-60.652;2023-04-06T13:25:59;22.46;73.32
63899;HTU21D;50070;-32.946;-60.652;2023-04-06T13:28:27;22.63;72.99
63899;HTU21D;50070;-32.946;-60.652;2023-04-06T13:30:54;22.42;72.98
63899;HTU21D;50070;-32.946;-60.652;2023-04-06T13:33:22;22.36;73.67
63899;HTU21D;50070;-32.946;-60.652;2023-04-06T13:35:48;22.39;73.10
63899;HTU21D;50070;-32.946;-60.652;2023-04-06T13:38:16;22.41;73.57
63899;HTU21D;50070;-32.946;-60.652;2023-04-06T13:40:42;22.48;72.45
63899;HTU21D;50070;-32.946;-60.652;2023-04-06T13:43:09;22.53;72.46
63899;HTU21D;50070;-32.946;-60.652;2023-04-06T13:45:37;22.58;72.64
63899;HTU21D;50070;-32.946;-60.652;2023-04-06T13:48:05;22.44;72.97
63899;HTU21D;50070;-32.946;-60.652;2023-04-06T13:50:32;22.35;72.91
63899;HTU21D;50070;-32.946;-60.652;2023-04-06T13:52:59;22.75;71.90
63899;HTU21D;50070;-32.946;-60.652;2023-04-06T13:55:26;23.00;71.35
63899;HTU21D;50070;-32.946;-60.652;2023-04-06T13:57:53;22.98;71.55
63899;HTU21D;50070;-32.946;-60.652;2023-04-06T14:00:21;23.13;70.61
63899;HTU21D;50070;-32.946;-60.652;2023-04-06T14:02:48;23.31;70.35
63899;HTU21D;50070;-32.946;-60.652;2023-04-06T14:05:14;23.13;69.99
63899;HTU21D;50070;-32.946;-60.652;2023-04-06T14:07:41;22.93;70.90
63899;HTU21D;50070;-32.946;-60.652;2023-04-06T14:10:09;23.07;70.88
63899;HTU21D;50070;-32.946;-60.652;2023-04-06T14:12:43;23.11;70.97
63899;HTU21D;50070;-32.946;-60.652;2023-04-06T14:15:11;23.05;71.38
63899;HTU21D;50070;-32.946;-60.652;2023-04-06T14:17:38;23.08;71.41
63899;HTU21D;50070;-32.946;-60.652;2023-04-06T14:20:09;23.10;70.79
63899;HTU21D;50070;-32.946;-60.652;2023-04-06T14:22:41;23.32;69.77
63899;HTU21D;50070;-32.946;-60.652;2023-04-06T14:25:09;23.41;69.18
63899;HTU21D;50070;-32.946;-60.652;2023-04-06T14:27:37;23.42;69.49
63899;HTU21D;50070;-32.946;-60.652;2023-04-06T14:30:04;23.87;68.34
63899;HTU21D;50070;-32.946;-60.652;2023-04-06T14:32:31;23.88;67.55
63899;HTU21D;50070;-32.946;-60.652;2023-04-06T14:34:58;23.83;67.64
63899;HTU21D;50070;-32.946;-60.652;2023-04-06T14:37:25;23.71;68.35
63899;HTU21D;50070;-32.946;-60.652;2023-04-06T14:39:52;23.66;68.97
63899;HTU21D;50070;-32.946;-60.652;2023-04-06T14:42:19;23.61;68.75
63899;HTU21D;50070;-32.946;-60.652;2023-04-06T14:44:45;23.57;68.69